sensor_id;sensor_type;location;lat;lon;timestamp;temperature;humidity
32506;DHT22;18955;51.224;8.482;2023-07-20T00:02:03;16.80;73.50
32506;DHT22;18955;51.224;8.482;2023-07-20T00:04:31;16.80;73.30
32506;DHT22;18955;51.224;8.482;2023-07-20T00:06:58;16.80;73.40
32506;DHT22;18955;51.224;8.482;2023-07-20T00:09:27;16.80;73.40
32506;DHT22;18955;51.224;8.482;2023-07-20T00:11:53;16.70;73.50
32506;DHT22;18955;51.224;8.482;2023-07-20T00:14:19;16.70;73.60
32506;DHT22;18955;51.224;8.482;2023-07-20T00:16:46;16.70;73.50
32506;DHT22;18955;51.224;8.482;2023-07-20T00:19:12;16.70;73.30
32506;DHT22;18955;51.224;8.482;2023-07-20T00:21:39;16.70;73.40
32506;DHT22;18955;51.224;8.482;2023-07-20T00:24:08;16.70;73.30
32506;DHT22;18955;51.224;8.482;2023-07-20T00:26:34;16.60;73.40
32506;DHT22;18955;51.224;8.482;2023-07-20T00:29:01;16.60;73.50
32506;DHT22;18955;51.224;8.482;2023-07-20T00:31:27;16.60;73.30
32506;DHT22;18955;51.224;8.482;2023-07-20T00:33:56;16.60;74.00
32506;DHT22;18955;51.224;8.482;2023-07-20T00:36:22;16.60;73.50
32506;DHT22;18955;51.224;8.482;2023-07-20T00:38:48;16.60;73.60
32506;DHT22;18955;51.224;8.482;2023-07-20T00:41:16;16.60;73.60
32506;DHT22;18955;51.224;8.482;2023-07-20T00:43:42;16.60;73.50
32506;DHT22;18955;51.224;8.482;2023-07-20T00:46:09;16.50;73.50
32506;DHT22;18955;51.224;8.482;2023-07-20T00:48:36;16.50;73.90
32506;DHT22;18955;51.224;8.482;2023-07-20T00:51:02;16.50;73.80
32506;DHT22;18955;51.224;8.482;2023-07-20T00:53:29;16.50;73.70
32506;DHT22;18955;51.224;8.482;2023-07-20T00:55:55;16.50;73.80
32506;DHT22;18955;51.224;8.482;2023-07-20T00:58:22;16.50;73.90
32506;DHT22;18955;51.224;8.482;2023-07-20T01:00:48;16.50;74.00
32506;DHT22;18955;51.224;8.482;2023-07-20T01:03:14;16.40;74.00
32506;DHT22;18955;51.224;8.482;2023-07-20T01:06:05;16.40;74.10
32506;DHT22;18955;51.224;8.482;2023-07-20T01:09:08;16.40;74.00
32506;DHT22;18955;51.224;8.482;2023-07-20T01:14:26;16.40;74.40
32506;DHT22;18955;51.224;8.482;2023-07-20T01:16:52;16.30;75.30
32506;DHT22;18955;51.224;8.482;2023-07-20T01:19:18;16.40;74.00
32506;DHT22;18955;51.224;8.482;2023-07-20T01:30:01;16.30;74.40
32506;DHT22;18955;51.224;8.482;2023-07-20T01:32:31;16.30;74.10
32506;DHT22;18955;51.224;8.482;2023-07-20T01:34:58;16.30;74.10
32506;DHT22;18955;51.224;8.482;2023-07-20T01:37:26;16.30;74.60
32506;DHT22;18955;51.224;8.482;2023-07-20T01:39:55;16.30;74.00
32506;DHT22;18955;51.224;8.482;2023-07-20T01:42:22;16.30;74.30
32506;DHT22;18955;51.224;8.482;2023-07-20T01:44:53;16.20;74.30
32506;DHT22;18955;51.224;8.482;2023-07-20T01:47:19;16.20;75.00
32506;DHT22;18955;51.224;8.482;2023-07-20T01:49:46;16.20;74.40
32506;DHT22;18955;51.224;8.482;2023-07-20T01:52:12;16.20;74.30
32506;DHT22;18955;51.224;8.482;2023-07-20T01:54:38;16.20;74.60
32506;DHT22;18955;51.224;8.482;2023-07-20T01:57:05;16.20;75.00
32506;DHT22;18955;51.224;8.482;2023-07-20T01:59:31;16.20;74.50
32506;DHT22;18955;51.224;8.482;2023-07-20T02:01:57;16.10;74.20
32506;DHT22;18955;51.224;8.482;2023-07-20T02:04:24;16.10;74.40
32506;DHT22;18955;51.224;8.482;2023-07-20T02:06:50;16.20;74.60
32506;DHT22;18955;51.224;8.482;2023-07-20T02:09:16;16.10;74.50
32506;DHT22;18955;51.224;8.482;2023-07-20T02:11:42;16.10;74.60
32506;DHT22;18955;51.224;8.482;2023-07-20T02:14:08;16.10;74.40
32506;DHT22;18955;51.224;8.482;2023-07-20T02:16:35;16.10;74.40
32506;DHT22;18955;51.224;8.482;2023-07-20T02:19:01;16.10;74.10
32506;DHT22;18955;51.224;8.482;2023-07-20T02:21:28;16.10;74.40
32506;DHT22;18955;51.224;8.482;2023-07-20T02:23:54;16.00;74.50
32506;DHT22;18955;51.224;8.482;2023-07-20T02:26:20;16.00;74.30
32506;DHT22;18955;51.224;8.482;2023-07-20T02:28:46;16.00;74.70
32506;DHT22;18955;51.224;8.482;2023-07-20T02:31:13;16.00;74.90
32506;DHT22;18955;51.224;8.482;2023-07-20T02:33:39;15.90;74.50
32506;DHT22;18955;51.224;8.482;2023-07-20T02:36:05;15.90;74.50
32506;DHT22;18955;51.224;8.482;2023-07-20T02:38:31;15.90;74.50
32506;DHT22;18955;51.224;8.482;2023-07-20T02:40:57;15.90;74.20
32506;DHT22;18955;51.224;8.482;2023-07-20T02:43:23;15.90;74.40
32506;DHT22;18955;51.224;8.482;2023-07-20T02:45:50;15.90;74.60
32506;DHT22;18955;51.224;8.482;2023-07-20T02:48:16;15.90;74.70
32506;DHT22;18955;51.224;8.482;2023-07-20T02:50:43;15.90;74.50
32506;DHT22;18955;51.224;8.482;2023-07-20T02:53:10;15.90;74.60
32506;DHT22;18955;51.224;8.482;2023-07-20T02:55:36;15.80;74.80
32506;DHT22;18955;51.224;8.482;2023-07-20T02:58:03;15.80;74.90
32506;DHT22;18955;51.224;8.482;2023-07-20T03:00:29;15.80;74.40
32506;DHT22;18955;51.224;8.482;2023-07-20T03:02:55;15.80;74.90
32506;DHT22;18955;51.224;8.482;2023-07-20T03:05:24;15.90;74.70
32506;DHT22;18955;51.224;8.482;2023-07-20T03:07:51;15.80;74.90
32506;DHT22;18955;51.224;8.482;2023-07-20T03:10:17;15.80;74.90
32506;DHT22;18955;51.224;8.482;2023-07-20T03:12:44;15.80;75.10
32506;DHT22;18955;51.224;8.482;2023-07-20T03:15:10;15.80;75.40
32506;DHT22;18955;51.224;8.482;2023-07-20T03:17:37;15.80;75.10
32506;DHT22;18955;51.224;8.482;2023-07-20T03:20:04;15.80;75.70
32506;DHT22;18955;51.224;8.482;2023-07-20T03:22:34;15.80;74.90
32506;DHT22;18955;51.224;8.482;2023-07-20T03:25:01;15.70;75.50
32506;DHT22;18955;51.224;8.482;2023-07-20T03:27:27;15.70;75.30
32506;DHT22;18955;51.224;8.482;2023-07-20T03:29:55;15.70;75.20
32506;DHT22;18955;51.224;8.482;2023-07-20T03:32:21;15.70;75.20
32506;DHT22;18955;51.224;8.482;2023-07-20T03:34:47;15.70;75.50
32506;DHT22;18955;51.224;8.482;2023-07-20T03:37:14;15.70;75.30
32506;DHT22;18955;51.224;8.482;2023-07-20T03:39:40;15.70;75.50
32506;DHT22;18955;51.224;8.482;2023-07-20T03:42:07;15.60;75.30
32506;DHT22;18955;51.224;8.482;2023-07-20T03:44:33;15.70;75.20
32506;DHT22;18955;51.224;8.482;2023-07-20T03:47:00;15.60;75.50
32506;DHT22;18955;51.224;8.482;2023-07-20T03:49:26;15.60;75.30
32506;DHT22;18955;51.224;8.482;2023-07-20T03:51:52;15.60;75.90
32506;DHT22;18955;51.224;8.482;2023-07-20T03:54:19;15.60;75.40
32506;DHT22;18955;51.224;8.482;2023-07-20T03:56:45;15.60;75.60
32506;DHT22;18955;51.224;8.482;2023-07-20T03:59:11;15.60;75.30
32506;DHT22;18955;51.224;8.482;2023-07-20T04:01:38;15.60;75.20
32506;DHT22;18955;51.224;8.482;2023-07-20T04:04:07;15.60;75.50
32506;DHT22;18955;51.224;8.482;2023-07-20T04:06:34;15.60;75.60
32506;DHT22;18955;51.224;8.482;2023-07-20T04:09:00;15.60;75.90
32506;DHT22;18955;51.224;8.482;2023-07-20T04:11:26;15.50;75.70
32506;DHT22;18955;51.224;8.482;2023-07-20T04:13:52;15.50;75.60
32506;DHT22;18955;51.224;8.482;2023-07-20T04:16:19;15.60;75.70
32506;DHT22;18955;51.224;8.482;2023-07-20T04:18:46;15.50;76.20
32506;DHT22;18955;51.224;8.482;2023-07-20T04:21:13;15.50;76.20
32506;DHT22;18955;51.224;8.482;2023-07-20T04:23:39;15.50;75.60
32506;DHT22;18955;51.224;8.482;2023-07-20T04:26:05;15.50;75.50
32506;DHT22;18955;51.224;8.482;2023-07-20T04:28:32;15.50;75.90
32506;DHT22;18955;51.224;8.482;2023-07-20T04:31:10;15.50;75.70
32506;DHT22;18955;51.224;8.482;2023-07-20T04:33:38;15.40;75.90
32506;DHT22;18955;51.224;8.482;2023-07-20T04:36:05;15.50;75.80
32506;DHT22;18955;51.224;8.482;2023-07-20T04:38:34;15.50;76.30
32506;DHT22;18955;51.224;8.482;2023-07-20T04:41:21;15.40;76.20
32506;DHT22;18955;51.224;8.482;2023-07-20T04:43:49;15.40;75.90
32506;DHT22;18955;51.224;8.482;2023-07-20T04:46:22;15.50;76.10
32506;DHT22;18955;51.224;8.482;2023-07-20T04:48:50;15.40;76.20
32506;DHT22;18955;51.224;8.482;2023-07-20T04:51:16;15.40;76.10
32506;DHT22;18955;51.224;8.482;2023-07-20T04:53:47;15.40;76.40
32506;DHT22;18955;51.224;8.482;2023-07-20T04:56:13;15.40;76.40
32506;DHT22;18955;51.224;8.482;2023-07-20T04:58:40;15.40;76.70
32506;DHT22;18955;51.224;8.482;2023-07-20T05:01:06;15.40;76.60
32506;DHT22;18955;51.224;8.482;2023-07-20T05:03:35;15.40;76.10
32506;DHT22;18955;51.224;8.482;2023-07-20T05:06:01;15.40;76.60
32506;DHT22;18955;51.224;8.482;2023-07-20T05:08:28;15.40;76.30
32506;DHT22;18955;51.224;8.482;2023-07-20T05:10:54;15.40;76.50
32506;DHT22;18955;51.224;8.482;2023-07-20T05:13:21;15.30;76.90
32506;DHT22;18955;51.224;8.482;2023-07-20T05:15:54;15.40;76.30
32506;DHT22;18955;51.224;8.482;2023-07-20T05:18:21;15.40;76.60
32506;DHT22;18955;51.224;8.482;2023-07-20T05:20:48;15.30;76.40
32506;DHT22;18955;51.224;8.482;2023-07-20T05:23:17;15.40;76.40
32506;DHT22;18955;51.224;8.482;2023-07-20T05:25:44;15.40;76.40
32506;DHT22;18955;51.224;8.482;2023-07-20T05:28:10;15.30;76.50
32506;DHT22;18955;51.224;8.482;2023-07-20T05:30:36;15.30;76.20
32506;DHT22;18955;51.224;8.482;2023-07-20T05:33:02;15.30;76.40
32506;DHT22;18955;51.224;8.482;2023-07-20T05:35:29;15.30;76.50
32506;DHT22;18955;51.224;8.482;2023-07-20T05:37:55;15.30;77.00
32506;DHT22;18955;51.224;8.482;2023-07-20T05:40:21;15.30;76.80
32506;DHT22;18955;51.224;8.482;2023-07-20T05:42:48;15.30;76.40
32506;DHT22;18955;51.224;8.482;2023-07-20T05:45:17;15.20;77.00
32506;DHT22;18955;51.224;8.482;2023-07-20T05:47:44;15.30;76.50
32506;DHT22;18955;51.224;8.482;2023-07-20T05:50:10;15.30;76.80
32506;DHT22;18955;51.224;8.482;2023-07-20T05:52:37;15.30;77.00
32506;DHT22;18955;51.224;8.482;2023-07-20T05:55:05;15.30;77.00
32506;DHT22;18955;51.224;8.482;2023-07-20T05:57:31;15.30;76.90
32506;DHT22;18955;51.224;8.482;2023-07-20T05:59:57;15.30;76.50
32506;DHT22;18955;51.224;8.482;2023-07-20T06:02:23;15.30;76.40
32506;DHT22;18955;51.224;8.482;2023-07-20T06:04:50;15.20;76.70
32506;DHT22;18955;51.224;8.482;2023-07-20T06:07:16;15.20;76.30
32506;DHT22;18955;51.224;8.482;2023-07-20T06:09:42;15.30;76.50
32506;DHT22;18955;51.224;8.482;2023-07-20T06:12:08;15.30;77.90
32506;DHT22;18955;51.224;8.482;2023-07-20T06:14:35;15.20;77.00
32506;DHT22;18955;51.224;8.482;2023-07-20T06:17:01;15.20;76.90
32506;DHT22;18955;51.224;8.482;2023-07-20T06:19:27;15.30;77.00
32506;DHT22;18955;51.224;8.482;2023-07-20T06:21:53;15.30;76.80
32506;DHT22;18955;51.224;8.482;2023-07-20T06:24:20;15.30;76.70
32506;DHT22;18955;51.224;8.482;2023-07-20T06:26:46;15.20;77.20
32506;DHT22;18955;51.224;8.482;2023-07-20T06:29:12;15.30;76.90
32506;DHT22;18955;51.224;8.482;2023-07-20T06:31:38;15.30;76.90
32506;DHT22;18955;51.224;8.482;2023-07-20T06:34:04;15.20;77.20
32506;DHT22;18955;51.224;8.482;2023-07-20T06:36:30;15.30;76.80
32506;DHT22;18955;51.224;8.482;2023-07-20T06:38:57;15.20;76.50
32506;DHT22;18955;51.224;8.482;2023-07-20T06:41:23;15.30;76.90
32506;DHT22;18955;51.224;8.482;2023-07-20T06:43:49;15.30;77.30
32506;DHT22;18955;51.224;8.482;2023-07-20T06:46:16;15.20;76.70
32506;DHT22;18955;51.224;8.482;2023-07-20T06:48:42;15.30;76.40
32506;DHT22;18955;51.224;8.482;2023-07-20T06:51:08;15.20;76.30
32506;DHT22;18955;51.224;8.482;2023-07-20T06:53:34;15.30;76.80
32506;DHT22;18955;51.224;8.482;2023-07-20T06:56:01;15.20;76.70
32506;DHT22;18955;51.224;8.482;2023-07-20T06:58:27;15.20;76.70
32506;DHT22;18955;51.224;8.482;2023-07-20T07:00:53;15.20;77.40
32506;DHT22;18955;51.224;8.482;2023-07-20T07:03:19;15.30;77.40
32506;DHT22;18955;51.224;8.482;2023-07-20T07:05:47;15.20;77.20
32506;DHT22;18955;51.224;8.482;2023-07-20T07:08:13;15.30;77.80
32506;DHT22;18955;51.224;8.482;2023-07-20T07:10:39;15.20;77.00
32506;DHT22;18955;51.224;8.482;2023-07-20T07:13:05;15.20;77.80
32506;DHT22;18955;51.224;8.482;2023-07-20T07:15:31;15.20;77.00
32506;DHT22;18955;51.224;8.482;2023-07-20T07:17:58;15.30;78.00
32506;DHT22;18955;51.224;8.482;2023-07-20T07:20:26;15.20;78.00
32506;DHT22;18955;51.224;8.482;2023-07-20T07:22:52;15.20;77.80
32506;DHT22;18955;51.224;8.482;2023-07-20T07:25:19;15.20;77.50
32506;DHT22;18955;51.224;8.482;2023-07-20T07:27:45;15.20;77.60
32506;DHT22;18955;51.224;8.482;2023-07-20T07:30:12;15.20;77.80
32506;DHT22;18955;51.224;8.482;2023-07-20T07:32:38;15.20;77.10
32506;DHT22;18955;51.224;8.482;2023-07-20T07:35:05;15.20;76.70
32506;DHT22;18955;51.224;8.482;2023-07-20T07:37:31;15.20;77.60
32506;DHT22;18955;51.224;8.482;2023-07-20T07:39:57;15.30;77.50
32506;DHT22;18955;51.224;8.482;2023-07-20T07:42:23;15.20;77.10
32506;DHT22;18955;51.224;8.482;2023-07-20T07:44:49;15.20;77.40
32506;DHT22;18955;51.224;8.482;2023-07-20T07:47:15;15.30;78.00
32506;DHT22;18955;51.224;8.482;2023-07-20T07:49:42;15.30;77.40
32506;DHT22;18955;51.224;8.482;2023-07-20T07:52:08;15.30;76.90
32506;DHT22;18955;51.224;8.482;2023-07-20T07:54:34;15.20;77.30
32506;DHT22;18955;51.224;8.482;2023-07-20T07:57:00;15.30;77.40
32506;DHT22;18955;51.224;8.482;2023-07-20T07:59:26;15.30;76.90
32506;DHT22;18955;51.224;8.482;2023-07-20T08:01:52;15.40;77.40
32506;DHT22;18955;51.224;8.482;2023-07-20T08:04:19;15.30;77.70
32506;DHT22;18955;51.224;8.482;2023-07-20T08:06:45;15.40;78.40
32506;DHT22;18955;51.224;8.482;2023-07-20T08:09:11;15.40;78.40
32506;DHT22;18955;51.224;8.482;2023-07-20T08:11:39;15.30;77.90
32506;DHT22;18955;51.224;8.482;2023-07-20T08:14:05;15.30;78.20
32506;DHT22;18955;51.224;8.482;2023-07-20T08:16:31;15.40;77.20
32506;DHT22;18955;51.224;8.482;2023-07-20T08:18:58;15.40;77.60
32506;DHT22;18955;51.224;8.482;2023-07-20T08:21:24;15.40;78.90
32506;DHT22;18955;51.224;8.482;2023-07-20T08:23:50;15.40;78.40
32506;DHT22;18955;51.224;8.482;2023-07-20T08:26:16;15.40;77.90
32506;DHT22;18955;51.224;8.482;2023-07-20T08:28:44;15.50;78.20
32506;DHT22;18955;51.224;8.482;2023-07-20T08:31:11;15.50;78.30
32506;DHT22;18955;51.224;8.482;2023-07-20T08:33:37;15.50;79.20
32506;DHT22;18955;51.224;8.482;2023-07-20T08:36:03;15.50;79.00
32506;DHT22;18955;51.224;8.482;2023-07-20T08:38:29;15.50;78.70
32506;DHT22;18955;51.224;8.482;2023-07-20T08:40:56;15.50;79.10
32506;DHT22;18955;51.224;8.482;2023-07-20T08:43:23;15.50;79.70
32506;DHT22;18955;51.224;8.482;2023-07-20T08:45:54;15.50;78.80
32506;DHT22;18955;51.224;8.482;2023-07-20T08:48:22;15.50;79.00
32506;DHT22;18955;51.224;8.482;2023-07-20T08:50:52;15.50;79.20
32506;DHT22;18955;51.224;8.482;2023-07-20T08:53:20;15.50;79.50
32506;DHT22;18955;51.224;8.482;2023-07-20T08:55:46;15.50;78.20
32506;DHT22;18955;51.224;8.482;2023-07-20T08:58:15;15.50;79.10
32506;DHT22;18955;51.224;8.482;2023-07-20T09:00:41;15.60;79.30
32506;DHT22;18955;51.224;8.482;2023-07-20T09:03:08;15.50;79.10
32506;DHT22;18955;51.224;8.482;2023-07-20T09:05:35;15.60;78.40
32506;DHT22;18955;51.224;8.482;2023-07-20T09:08:01;15.60;78.00
32506;DHT22;18955;51.224;8.482;2023-07-20T09:10:31;15.60;78.80
32506;DHT22;18955;51.224;8.482;2023-07-20T09:12:57;15.50;78.50
32506;DHT22;18955;51.224;8.482;2023-07-20T09:15:23;15.60;78.80
32506;DHT22;18955;51.224;8.482;2023-07-20T09:17:50;15.60;78.60
32506;DHT22;18955;51.224;8.482;2023-07-20T09:20:18;15.60;78.20
32506;DHT22;18955;51.224;8.482;2023-07-20T09:22:45;15.60;78.00
32506;DHT22;18955;51.224;8.482;2023-07-20T09:25:18;15.60;78.80
32506;DHT22;18955;51.224;8.482;2023-07-20T09:27:49;15.50;78.60
32506;DHT22;18955;51.224;8.482;2023-07-20T09:30:16;15.60;78.10
32506;DHT22;18955;51.224;8.482;2023-07-20T09:32:43;15.60;78.20
32506;DHT22;18955;51.224;8.482;2023-07-20T09:35:20;15.60;78.50
32506;DHT22;18955;51.224;8.482;2023-07-20T09:37:55;15.60;78.00
32506;DHT22;18955;51.224;8.482;2023-07-20T09:40:25;15.60;78.10
32506;DHT22;18955;51.224;8.482;2023-07-20T09:42:53;15.60;78.40
32506;DHT22;18955;51.224;8.482;2023-07-20T09:45:57;15.60;78.00
32506;DHT22;18955;51.224;8.482;2023-07-20T09:48:24;15.60;77.30
32506;DHT22;18955;51.224;8.482;2023-07-20T09:50:52;15.70;77.70
32506;DHT22;18955;51.224;8.482;2023-07-20T09:53:18;15.70;77.70
32506;DHT22;18955;51.224;8.482;2023-07-20T09:55:46;15.70;77.20
32506;DHT22;18955;51.224;8.482;2023-07-20T09:58:14;15.70;78.10
32506;DHT22;18955;51.224;8.482;2023-07-20T10:00:41;15.70;78.20
32506;DHT22;18955;51.224;8.482;2023-07-20T10:03:14;15.70;77.70
32506;DHT22;18955;51.224;8.482;2023-07-20T10:06:05;15.80;78.10
32506;DHT22;18955;51.224;8.482;2023-07-20T10:08:37;15.80;77.60
32506;DHT22;18955;51.224;8.482;2023-07-20T10:11:07;15.80;78.30
32506;DHT22;18955;51.224;8.482;2023-07-20T10:13:38;15.80;78.60
32506;DHT22;18955;51.224;8.482;2023-07-20T10:16:10;15.80;78.00
32506;DHT22;18955;51.224;8.482;2023-07-20T10:21:12;15.80;77.90
32506;DHT22;18955;51.224;8.482;2023-07-20T10:23:39;15.90;78.10
32506;DHT22;18955;51.224;8.482;2023-07-20T10:26:05;15.80;77.80
32506;DHT22;18955;51.224;8.482;2023-07-20T10:28:32;15.90;77.90
32506;DHT22;18955;51.224;8.482;2023-07-20T10:30:58;15.90;77.80
32506;DHT22;18955;51.224;8.482;2023-07-20T10:33:25;15.90;77.70
32506;DHT22;18955;51.224;8.482;2023-07-20T10:35:56;15.90;77.50
32506;DHT22;18955;51.224;8.482;2023-07-20T10:38:56;15.90;77.30
32506;DHT22;18955;51.224;8.482;2023-07-20T10:41:39;15.90;77.50
32506;DHT22;18955;51.224;8.482;2023-07-20T10:44:09;15.90;77.60
32506;DHT22;18955;51.224;8.482;2023-07-20T10:46:43;15.90;77.50
32506;DHT22;18955;51.224;8.482;2023-07-20T10:49:14;15.90;77.80
32506;DHT22;18955;51.224;8.482;2023-07-20T10:51:46;15.90;77.70
32506;DHT22;18955;51.224;8.482;2023-07-20T10:56:41;15.90;77.60
32506;DHT22;18955;51.224;8.482;2023-07-20T11:01:48;15.90;77.70
32506;DHT22;18955;51.224;8.482;2023-07-20T11:04:17;15.90;77.60
32506;DHT22;18955;51.224;8.482;2023-07-20T11:06:55;15.90;77.60
32506;DHT22;18955;51.224;8.482;2023-07-20T11:09:22;15.90;77.60
32506;DHT22;18955;51.224;8.482;2023-07-20T11:12:11;15.90;77.30
32506;DHT22;18955;51.224;8.482;2023-07-20T11:15:02;15.90;77.10
32506;DHT22;18955;51.224;8.482;2023-07-20T11:17:31;15.90;77.20
32506;DHT22;18955;51.224;8.482;2023-07-20T11:19:59;15.90;77.10
32506;DHT22;18955;51.224;8.482;2023-07-20T11:22:31;16.00;77.10
32506;DHT22;18955;51.224;8.482;2023-07-20T11:24:57;16.00;76.90
32506;DHT22;18955;51.224;8.482;2023-07-20T11:27:24;15.90;76.70
32506;DHT22;18955;51.224;8.482;2023-07-20T11:29:51;16.00;76.90
32506;DHT22;18955;51.224;8.482;2023-07-20T11:32:24;16.00;76.90
32506;DHT22;18955;51.224;8.482;2023-07-20T11:34:50;16.00;77.00
32506;DHT22;18955;51.224;8.482;2023-07-20T11:37:17;16.00;76.90
32506;DHT22;18955;51.224;8.482;2023-07-20T11:39:44;16.00;76.80
32506;DHT22;18955;51.224;8.482;2023-07-20T11:42:11;16.00;76.60
32506;DHT22;18955;51.224;8.482;2023-07-20T11:44:38;16.00;76.50
32506;DHT22;18955;51.224;8.482;2023-07-20T11:47:10;16.00;76.30
32506;DHT22;18955;51.224;8.482;2023-07-20T11:49:42;16.00;76.10
32506;DHT22;18955;51.224;8.482;2023-07-20T11:52:15;16.00;76.10
32506;DHT22;18955;51.224;8.482;2023-07-20T11:54:42;16.00;76.10
32506;DHT22;18955;51.224;8.482;2023-07-20T11:57:21;16.10;76.00
32506;DHT22;18955;51.224;8.482;2023-07-20T12:00:13;16.00;75.60
32506;DHT22;18955;51.224;8.482;2023-07-20T12:02:41;16.10;75.50
32506;DHT22;18955;51.224;8.482;2023-07-20T12:05:08;16.10;75.50
32506;DHT22;18955;51.224;8.482;2023-07-20T12:07:36;16.10;75.80
32506;DHT22;18955;51.224;8.482;2023-07-20T12:12:33;16.10;75.70
32506;DHT22;18955;51.224;8.482;2023-07-20T12:17:43;16.10;75.20
32506;DHT22;18955;51.224;8.482;2023-07-20T12:20:10;16.10;75.00
32506;DHT22;18955;51.224;8.482;2023-07-20T12:22:40;16.10;75.30
32506;DHT22;18955;51.224;8.482;2023-07-20T12:25:12;16.10;74.70
32506;DHT22;18955;51.224;8.482;2023-07-20T12:27:38;16.10;74.70
32506;DHT22;18955;51.224;8.482;2023-07-20T12:30:06;16.20;74.70
32506;DHT22;18955;51.224;8.482;2023-07-20T12:32:33;16.20;74.70
32506;DHT22;18955;51.224;8.482;2023-07-20T12:34:59;16.20;74.50
32506;DHT22;18955;51.224;8.482;2023-07-20T12:37:26;16.10;74.20
32506;DHT22;18955;51.224;8.482;2023-07-20T12:39:53;16.20;73.90
32506;DHT22;18955;51.224;8.482;2023-07-20T12:42:19;16.20;74.00
32506;DHT22;18955;51.224;8.482;2023-07-20T12:44:45;16.10;74.00
32506;DHT22;18955;51.224;8.482;2023-07-20T12:47:11;16.20;73.80
32506;DHT22;18955;51.224;8.482;2023-07-20T12:49:38;16.10;73.80
32506;DHT22;18955;51.224;8.482;2023-07-20T12:52:05;16.20;73.80
32506;DHT22;18955;51.224;8.482;2023-07-20T12:54:31;16.20;73.70
32506;DHT22;18955;51.224;8.482;2023-07-20T12:56:58;16.20;73.30
32506;DHT22;18955;51.224;8.482;2023-07-20T12:59:25;16.20;73.70
32506;DHT22;18955;51.224;8.482;2023-07-20T13:01:51;16.20;73.70
32506;DHT22;18955;51.224;8.482;2023-07-20T13:04:17;16.20;73.50
32506;DHT22;18955;51.224;8.482;2023-07-20T13:06:43;16.20;73.00
32506;DHT22;18955;51.224;8.482;2023-07-20T13:09:10;16.20;73.30
32506;DHT22;18955;51.224;8.482;2023-07-20T13:11:36;16.20;73.30
32506;DHT22;18955;51.224;8.482;2023-07-20T13:14:02;16.20;73.40
32506;DHT22;18955;51.224;8.482;2023-07-20T13:16:28;16.20;73.50
32506;DHT22;18955;51.224;8.482;2023-07-20T13:18:55;16.20;73.70
32506;DHT22;18955;51.224;8.482;2023-07-20T13:21:21;16.20;73.80
32506;DHT22;18955;51.224;8.482;2023-07-20T13:23:48;16.20;73.60
32506;DHT22;18955;51.224;8.482;2023-07-20T13:26:15;16.30;73.60
32506;DHT22;18955;51.224;8.482;2023-07-20T13:28:42;16.20;73.60
32506;DHT22;18955;51.224;8.482;2023-07-20T13:31:08;16.30;73.70
32506;DHT22;18955;51.224;8.482;2023-07-20T13:33:37;16.30;73.70
32506;DHT22;18955;51.224;8.482;2023-07-20T13:36:04;16.30;73.60
32506;DHT22;18955;51.224;8.482;2023-07-20T13:38:31;16.30;73.60
32506;DHT22;18955;51.224;8.482;2023-07-20T13:40:58;16.30;73.60
32506;DHT22;18955;51.224;8.482;2023-07-20T13:43:24;16.30;73.40
32506;DHT22;18955;51.224;8.482;2023-07-20T13:45:51;16.30;73.30
32506;DHT22;18955;51.224;8.482;2023-07-20T13:48:17;16.30;72.80
32506;DHT22;18955;51.224;8.482;2023-07-20T13:50:46;16.30;72.70
32506;DHT22;18955;51.224;8.482;2023-07-20T13:53:12;16.30;72.80
32506;DHT22;18955;51.224;8.482;2023-07-20T13:55:39;16.30;72.80
32506;DHT22;18955;51.224;8.482;2023-07-20T13:58:05;16.30;72.60
32506;DHT22;18955;51.224;8.482;2023-07-20T14:00:31;16.30;73.00
32506;DHT22;18955;51.224;8.482;2023-07-20T14:02:59;16.40;73.00
32506;DHT22;18955;51.224;8.482;2023-07-20T14:05:25;16.30;72.80
32506;DHT22;18955;51.224;8.482;2023-07-20T14:07:51;16.40;72.80
32506;DHT22;18955;51.224;8.482;2023-07-20T14:10:18;16.40;73.00
32506;DHT22;18955;51.224;8.482;2023-07-20T14:12:45;16.40;72.90
32506;DHT22;18955;51.224;8.482;2023-07-20T14:15:11;16.40;72.90
32506;DHT22;18955;51.224;8.482;2023-07-20T14:17:37;16.40;73.00
32506;DHT22;18955;51.224;8.482;2023-07-20T14:20:04;16.40;72.90
32506;DHT22;18955;51.224;8.482;2023-07-20T14:22:33;16.40;72.80
32506;DHT22;18955;51.224;8.482;2023-07-20T14:25:00;16.40;72.80
32506;DHT22;18955;51.224;8.482;2023-07-20T14:27:26;16.40;72.70
32506;DHT22;18955;51.224;8.482;2023-07-20T14:29:52;16.50;72.90
32506;DHT22;18955;51.224;8.482;2023-07-20T14:32:19;16.50;72.00
32506;DHT22;18955;51.224;8.482;2023-07-20T14:34:45;16.50;72.40
32506;DHT22;18955;51.224;8.482;2023-07-20T14:37:11;16.50;72.60
32506;DHT22;18955;51.224;8.482;2023-07-20T14:39:38;16.50;72.60
32506;DHT22;18955;51.224;8.482;2023-07-20T14:42:05;16.50;72.50
32506;DHT22;18955;51.224;8.482;2023-07-20T14:44:33;16.50;72.60
32506;DHT22;18955;51.224;8.482;2023-07-20T14:46:59;16.50;72.60
32506;DHT22;18955;51.224;8.482;2023-07-20T14:49:26;16.50;72.60
32506;DHT22;18955;51.224;8.482;2023-07-20T14:51:52;16.50;72.40
32506;DHT22;18955;51.224;8.482;2023-07-20T14:54:19;16.50;72.10
32506;DHT22;18955;51.224;8.482;2023-07-20T14:56:53;16.60;71.90
32506;DHT22;18955;51.224;8.482;2023-07-20T14:59:20;16.60;71.70
32506;DHT22;18955;51.224;8.482;2023-07-20T15:01:46;16.60;71.80
32506;DHT22;18955;51.224;8.482;2023-07-20T15:04:13;16.60;71.70
32506;DHT22;18955;51.224;8.482;2023-07-20T15:06:40;16.60;71.60
32506;DHT22;18955;51.224;8.482;2023-07-20T15:09:07;16.60;71.20
32506;DHT22;18955;51.224;8.482;2023-07-20T15:11:34;16.60;71.20
32506;DHT22;18955;51.224;8.482;2023-07-20T15:14:00;16.60;71.60
32506;DHT22;18955;51.224;8.482;2023-07-20T15:16:27;16.60;71.80
32506;DHT22;18955;51.224;8.482;2023-07-20T15:18:53;16.60;72.00
32506;DHT22;18955;51.224;8.482;2023-07-20T15:21:19;16.60;72.00
32506;DHT22;18955;51.224;8.482;2023-07-20T15:23:46;16.60;72.10
32506;DHT22;18955;51.224;8.482;2023-07-20T15:26:12;16.60;72.00
32506;DHT22;18955;51.224;8.482;2023-07-20T15:28:39;16.60;72.10
32506;DHT22;18955;51.224;8.482;2023-07-20T15:31:06;16.60;72.30
32506;DHT22;18955;51.224;8.482;2023-07-20T15:33:32;16.60;72.40
32506;DHT22;18955;51.224;8.482;2023-07-20T15:35:58;16.60;72.40
32506;DHT22;18955;51.224;8.482;2023-07-20T15:38:24;16.60;72.40
32506;DHT22;18955;51.224;8.482;2023-07-20T15:40:51;16.60;72.30
32506;DHT22;18955;51.224;8.482;2023-07-20T15:43:17;16.60;72.10
32506;DHT22;18955;51.224;8.482;2023-07-20T15:45:46;16.70;72.10
32506;DHT22;18955;51.224;8.482;2023-07-20T15:48:14;16.70;72.30
32506;DHT22;18955;51.224;8.482;2023-07-20T15:50:40;16.70;72.10
32506;DHT22;18955;51.224;8.482;2023-07-20T15:53:06;16.70;72.00
32506;DHT22;18955;51.224;8.482;2023-07-20T15:55:32;16.70;72.10
32506;DHT22;18955;51.224;8.482;2023-07-20T15:58:00;16.70;72.20